Time;durP1;ratioP1;P1;durP2;ratioP2;P2;SDS_P1;SDS_P2;PMS_P1;PMS_P2;Temp;Humidity;BMP_temperature;BMP_pressure;BME280_temperature;BME280_humidity;BME280_pressure;Samples;Min_cycle;Max_cycle;Signal;HPM_P1;HPM_P2
2022/04/04 00:00:12;;;;;;;9.88;8.88;;;7.30;74.50;;;;;;6038893;23;20374;-80
2022/04/04 00:02:40;;;;;;;9.38;8.48;;;7.20;75.70;;;;;;6064595;23;20856;-79
2022/04/04 00:05:07;;;;;;;10.18;9.27;;;7.10;73.90;;;;;;6038576;23;20383;-81
2022/04/04 00:07:34;;;;;;;9.70;8.80;;;7.10;74.40;;;;;;6039927;23;20383;-79
2022/04/04 00:10:01;;;;;;;10.32;9.32;;;7.10;75.10;;;;;;6039021;23;20439;-81
2022/04/04 00:12:28;;;;;;;10.52;9.45;;;7.10;76.00;;;;;;6038914;23;20443;-80
2022/04/04 00:14:55;;;;;;;11.30;10.20;;;7.10;76.60;;;;;;6064131;23;20386;-81
2022/04/04 00:17:23;;;;;;;11.33;10.33;;;7.00;77.10;;;;;;6062653;23;20493;-80
2022/04/04 00:19:49;;;;;;;11.38;10.27;;;7.00;77.20;;;;;;6062536;23;20478;-82
2022/04/04 00:22:16;;;;;;;11.25;10.15;;;6.90;77.30;;;;;;6062460;23;20438;-82
2022/04/04 00:24:43;;;;;;;11.38;10.27;;;6.90;76.90;;;;;;6063703;23;20390;-80
2022/04/04 00:27:10;;;;;;;12.00;10.80;;;6.90;76.80;;;;;;6062111;23;20391;-80
2022/04/04 00:29:37;;;;;;;11.82;10.73;;;7.00;77.00;;;;;;6063507;23;20383;-80
2022/04/04 00:32:04;;;;;;;11.07;10.07;;;7.00;76.40;;;;;;6061836;23;20753;-79
2022/04/04 00:34:31;;;;;;;11.07;9.98;;;7.00;77.30;;;;;;6062315;23;20788;-79
2022/04/04 00:36:58;;;;;;;11.73;10.55;;;7.10;77.40;;;;;;6039329;23;20381;-81
2022/04/04 00:39:26;;;;;;;11.60;10.47;;;7.00;76.80;;;;;;6062650;23;20390;-79
2022/04/04 00:41:53;;;;;;;10.82;9.73;;;7.00;76.90;;;;;;6063100;23;20379;-80
2022/04/04 00:44:20;;;;;;;11.73;10.52;;;7.10;76.80;;;;;;6038278;23;20387;-80
2022/04/04 00:46:46;;;;;;;11.20;10.10;;;7.10;76.70;;;;;;6062658;23;20903;-79
2022/04/04 00:49:13;;;;;;;12.27;10.65;;;7.10;76.50;;;;;;6062148;23;20752;-80
2022/04/04 00:51:40;;;;;;;11.38;10.27;;;7.20;76.40;;;;;;6062604;23;20383;-81
2022/04/04 00:54:08;;;;;;;10.60;9.60;;;7.20;76.10;;;;;;6063030;23;20419;-80
2022/04/04 00:56:36;;;;;;;10.30;9.30;;;7.20;75.50;;;;;;6038103;23;20383;-79
2022/04/04 00:59:05;;;;;;;10.30;9.30;;;7.30;74.90;;;;;;6063175;23;20387;-81
2022/04/04 01:01:32;;;;;;;10.45;9.48;;;7.30;74.30;;;;;;6062065;23;20452;-79
2022/04/04 01:04:01;;;;;;;10.10;9.20;;;7.30;74.90;;;;;;6062886;23;20736;-79
2022/04/04 01:06:28;;;;;;;11.13;10.02;;;7.40;74.60;;;;;;6038909;23;20391;-80
2022/04/04 01:08:55;;;;;;;11.85;10.75;;;7.40;74.70;;;;;;6063215;23;20848;-81
2022/04/04 01:11:22;;;;;;;11.48;10.38;;;7.30;76.20;;;;;;6063573;23;20459;-77
2022/04/04 01:13:49;;;;;;;11.53;10.53;;;7.30;76.20;;;;;;6061408;23;20707;-81
2022/04/04 01:16:17;;;;;;;12.48;11.27;;;7.30;76.50;;;;;;6062992;23;20458;-81
2022/04/04 01:18:45;;;;;;;12.27;11.07;;;7.30;77.10;;;;;;6062717;23;20446;-80
2022/04/04 01:21:11;;;;;;;12.93;11.63;;;7.20;78.20;;;;;;6039368;23;20416;-81
2022/04/04 01:23:40;;;;;;;13.35;12.05;;;7.10;79.00;;;;;;6062787;23;20387;-79
2022/04/04 01:26:09;;;;;;;12.73;11.52;;;7.10;79.50;;;;;;6063348;23;20880;-81
2022/04/04 01:28:37;;;;;;;13.27;12.00;;;7.10;80.10;;;;;;6063679;23;20741;-79
2022/04/04 01:31:04;;;;;;;13.98;12.48;;;7.00;80.30;;;;;;6062765;23;20390;-78
2022/04/04 01:33:32;;;;;;;12.90;11.70;;;7.10;79.80;;;;;;6062394;23;20389;-79
2022/04/04 01:35:59;;;;;;;12.75;11.32;;;7.10;80.00;;;;;;6062633;23;20434;-78
2022/04/04 01:38:26;;;;;;;11.23;10.23;;;7.20;79.40;;;;;;6063486;23;20852;-81
2022/04/04 01:40:53;;;;;;;13.55;12.23;;;7.20;78.80;;;;;;6063314;23;20843;-81
2022/04/04 01:43:20;;;;;;;15.10;13.60;;;7.20;82.00;;;;;;6062490;23;20458;-80
2022/04/04 01:48:35;;;;;;;13.52;12.20;;;7.00;83.30;;;;;;6050611;23;20397;-79
2022/04/04 01:51:03;;;;;;;13.55;12.25;;;7.00;82.20;;;;;;6040576;23;20694;-79
2022/04/04 01:53:31;;;;;;;13.82;12.52;;;7.10;82.00;;;;;;6063963;23;20438;-79
2022/04/04 01:56:03;;;;;;;12.07;10.88;;;7.10;82.20;;;;;;6064848;23;20378;-79
2022/04/04 01:58:30;;;;;;;11.98;10.85;;;7.10;81.30;;;;;;6064306;23;20729;-79
2022/04/04 02:01:01;;;;;;;12.85;11.55;;;7.10;80.80;;;;;;6064336;23;20430;-81
2022/04/04 02:03:29;;;;;;;13.25;11.90;;;7.10;80.70;;;;;;6063724;23;20808;-79
2022/04/04 02:05:56;;;;;;;13.93;12.48;;;7.10;82.00;;;;;;6064739;23;20439;-80
2022/04/04 02:08:23;;;;;;;11.73;10.63;;;7.00;82.20;;;;;;6063936;23;20410;-79
2022/04/04 02:10:50;;;;;;;12.90;11.70;;;7.00;81.40;;;;;;6064859;23;20383;-81
2022/04/04 02:13:17;;;;;;;12.23;11.10;;;7.10;80.50;;;;;;6064676;23;20394;-78
2022/04/04 02:15:44;;;;;;;11.82;10.73;;;7.10;80.00;;;;;;6052320;23;20380;-81
2022/04/04 02:18:11;;;;;;;13.00;11.80;;;7.10;79.50;;;;;;6064438;23;20884;-81
2022/04/04 02:20:38;;;;;;;13.82;12.48;;;7.20;80.20;;;;;;6063695;23;20394;-80
2022/04/04 02:23:05;;;;;;;14.43;13.05;;;7.10;80.80;;;;;;6064792;23;20447;-81
2022/04/04 02:25:32;;;;;;;13.43;12.23;;;7.00;81.80;;;;;;6063376;23;20473;-81
2022/04/04 02:27:59;;;;;;;15.88;14.38;;;7.00;81.50;;;;;;6064939;23;20855;-80
2022/04/04 02:30:26;;;;;;;14.50;13.10;;;6.90;82.30;;;;;;6060265;23;20387;-80
2022/04/04 02:32:53;;;;;;;15.02;13.63;;;6.90;81.90;;;;;;6040386;23;20382;-80
2022/04/04 02:35:20;;;;;;;13.90;12.65;;;7.00;81.60;;;;;;6040445;23;20387;-80
2022/04/04 02:37:47;;;;;;;13.38;12.18;;;7.00;81.70;;;;;;6064956;23;20383;-80
2022/04/04 02:40:14;;;;;;;14.38;12.85;;;7.00;80.90;;;;;;6040488;23;20864;-80
2022/04/04 02:42:41;;;;;;;13.60;12.27;;;7.00;80.50;;;;;;6039262;23;20859;-79
2022/04/04 02:45:08;;;;;;;14.17;12.77;;;7.00;80.10;;;;;;6040896;23;20443;-79
2022/04/04 02:47:35;;;;;;;15.50;13.90;;;7.00;79.90;;;;;;6039060;23;20387;-81
2022/04/04 02:50:03;;;;;;;14.85;13.35;;;7.00;80.70;;;;;;6040630;23;20387;-80
2022/04/04 02:52:29;;;;;;;15.30;13.90;;;7.00;81.20;;;;;;6039807;23;20383;-81
2022/04/04 02:54:56;;;;;;;15.32;13.82;;;6.90;82.40;;;;;;6040724;23;20379;-79
2022/04/04 02:57:23;;;;;;;15.60;14.10;;;6.90;81.50;;;;;;6039843;23;20388;-79
2022/04/04 02:59:50;;;;;;;14.38;13.02;;;6.90;81.50;;;;;;6040385;23;20409;-82
2022/04/04 03:02:17;;;;;;;16.33;14.48;;;6.90;81.30;;;;;;6040496;23;20383;-80
2022/04/04 03:04:44;;;;;;;14.40;13.00;;;6.90;81.40;;;;;;6039225;23;20447;-80
2022/04/04 03:07:11;;;;;;;15.18;13.70;;;6.90;80.90;;;;;;6040411;23;20390;-79
2022/04/04 03:09:39;;;;;;;14.30;12.90;;;6.90;81.10;;;;;;6037629;23;20447;-79
2022/04/04 03:12:07;;;;;;;14.40;13.00;;;6.90;80.80;;;;;;6064427;23;20390;-80
2022/04/04 03:14:35;;;;;;;15.85;14.25;;;6.90;80.80;;;;;;6039352;23;20387;-80
2022/04/04 03:17:02;;;;;;;15.80;14.32;;;6.90;82.00;;;;;;6039777;23;20383;-80
2022/04/04 03:19:29;;;;;;;16.00;14.38;;;6.80;83.50;;;;;;6039360;23;20430;-81
2022/04/04 03:21:57;;;;;;;16.53;15.00;;;6.80;83.20;;;;;;6065081;23;20402;-80
2022/04/04 03:24:24;;;;;;;15.20;13.70;;;6.80;83.60;;;;;;6040242;23;20391;-79
2022/04/04 03:26:52;;;;;;;16.42;14.75;;;6.80;84.00;;;;;;6039426;23;20485;-80
2022/04/04 03:29:19;;;;;;;15.25;13.70;;;6.80;84.00;;;;;;6040538;23;20466;-78
2022/04/04 03:31:47;;;;;;;15.73;14.15;;;6.80;84.00;;;;;;6038663;23;20423;-80
2022/04/04 03:34:14;;;;;;;16.60;15.00;;;6.80;84.20;;;;;;6040398;23;20768;-80
2022/04/04 03:36:40;;;;;;;17.45;15.75;;;6.50;84.50;;;;;;6039677;23;20387;-82
2022/04/04 03:39:07;;;;;;;16.48;14.77;;;6.40;85.90;;;;;;6040421;23;20435;-80
2022/04/04 03:41:35;;;;;;;16.58;14.93;;;6.50;85.10;;;;;;6039592;23;20407;-81
2022/04/04 03:44:02;;;;;;;15.90;14.40;;;6.50;84.50;;;;;;6065008;23;20434;-80
2022/04/04 03:46:29;;;;;;;15.15;13.70;;;6.60;85.00;;;;;;6064017;23;20923;-80
2022/04/04 03:48:56;;;;;;;16.42;14.73;;;6.50;86.80;;;;;;6063556;23;20405;-80
2022/04/04 03:51:23;;;;;;;16.38;14.68;;;6.40;85.90;;;;;;6040393;23;20379;-79
2022/04/04 03:53:49;;;;;;;14.95;13.45;;;6.40;85.50;;;;;;6038510;23;21266;-79
2022/04/04 03:56:16;;;;;;;15.95;14.35;;;6.50;84.60;;;;;;6040192;23;20411;-79
2022/04/04 03:58:43;;;;;;;18.80;16.90;;;6.60;84.00;;;;;;6038733;23;20496;-81
2022/04/04 04:01:10;;;;;;;18.70;16.90;;;6.60;84.00;;;;;;6038954;23;20391;-81
2022/04/04 04:03:38;;;;;;;17.55;15.82;;;6.60;84.10;;;;;;6038530;23;20390;-80
2022/04/04 04:06:14;;;;;;;17.40;15.70;;;6.60;84.90;;;;;;6039815;23;20443;-80
2022/04/04 04:08:43;;;;;;;18.30;16.50;;;6.50;85.20;;;;;;6039132;23;20442;-80
2022/04/04 04:11:13;;;;;;;16.17;14.63;;;6.50;85.50;;;;;;6064632;23;20434;-81
2022/04/04 04:13:45;;;;;;;17.35;15.60;;;6.50;84.80;;;;;;6038788;23;20391;-80
2022/04/04 04:16:15;;;;;;;17.40;15.60;;;6.60;84.80;;;;;;6039456;23;20411;-80
2022/04/04 04:18:42;;;;;;;16.50;14.90;;;6.60;84.00;;;;;;6063493;23;20415;-79
2022/04/04 04:21:11;;;;;;;17.02;15.27;;;6.70;83.50;;;;;;6039785;23;20374;-80
2022/04/04 04:23:42;;;;;;;16.52;14.80;;;6.70;83.80;;;;;;6038917;23;20431;-80
2022/04/04 04:26:12;;;;;;;16.27;14.65;;;6.60;85.40;;;;;;6040074;23;20439;-80
2022/04/04 04:28:44;;;;;;;15.85;14.35;;;6.60;85.20;;;;;;6039283;23;20379;-81
2022/04/04 04:31:12;;;;;;;15.80;14.30;;;6.40;85.80;;;;;;6011591;23;20433;-80
2022/04/04 04:33:38;;;;;;;16.75;15.05;;;6.50;85.60;;;;;;6033474;23;20397;-79
2022/04/04 04:36:06;;;;;;;16.90;15.07;;;6.50;86.00;;;;;;6011026;23;20384;-80
2022/04/04 04:38:34;;;;;;;16.65;15.02;;;6.50;86.00;;;;;;6033812;23;20389;-82
2022/04/04 04:41:01;;;;;;;16.55;14.95;;;6.50;86.10;;;;;;6011069;23;20845;-80
2022/04/04 04:43:31;;;;;;;15.85;14.35;;;6.60;85.40;;;;;;6034644;23;20389;-80
2022/04/04 04:45:58;;;;;;;16.83;15.15;;;6.60;85.00;;;;;;6011268;23;20380;-80
2022/04/04 04:48:24;;;;;;;18.40;16.52;;;6.60;85.70;;;;;;6011469;23;20385;-81
2022/04/04 04:50:51;;;;;;;18.27;16.23;;;6.50;87.70;;;;;;6009822;23;20388;-79
2022/04/04 04:53:18;;;;;;;17.48;15.77;;;6.50;87.40;;;;;;6011372;23;20452;-80
2022/04/04 04:55:46;;;;;;;18.00;16.20;;;6.50;87.80;;;;;;6009707;23;20392;-80
2022/04/04 04:58:13;;;;;;;18.75;16.85;;;6.50;87.90;;;;;;6011336;23;20392;-79
2022/04/04 05:00:41;;;;;;;18.27;16.42;;;6.40;88.00;;;;;;6010303;23;20444;-80
2022/04/04 05:03:26;;;;;;;18.67;16.77;;;6.50;87.30;;;;;;6011421;23;20845;-80
2022/04/04 05:05:54;;;;;;;18.60;16.80;;;6.50;86.60;;;;;;6010484;23;20767;-80
2022/04/04 05:08:20;;;;;;;19.95;17.90;;;6.60;86.50;;;;;;6034296;23;20389;-79
2022/04/04 05:10:47;;;;;;;18.38;16.65;;;6.60;86.10;;;;;;6033201;23;20395;-81
2022/04/04 05:13:14;;;;;;;18.25;16.45;;;6.60;85.80;;;;;;6011487;23;20381;-80
2022/04/04 05:15:42;;;;;;;19.15;17.25;;;6.70;85.20;;;;;;6009981;23;20388;-80
2022/04/04 05:18:10;;;;;;;20.20;18.20;;;6.70;84.40;;;;;;6010848;23;20456;-79
2022/04/04 05:20:36;;;;;;;19.13;17.23;;;6.70;84.30;;;;;;6035814;23;20384;-78
2022/04/04 05:23:03;;;;;;;20.52;18.42;;;6.70;84.20;;;;;;6015237;23;20380;-80
2022/04/04 05:25:30;;;;;;;21.25;18.30;;;6.80;83.90;;;;;;6040472;23;20893;-82
2022/04/04 05:27:57;;;;;;;21.60;19.30;;;6.80;84.00;;;;;;6036928;23;20834;-80
2022/04/04 05:30:25;;;;;;;23.67;21.30;;;6.80;84.10;;;;;;6034907;23;20387;-81
2022/04/04 05:32:52;;;;;;;21.00;18.90;;;6.80;84.10;;;;;;6040479;23;20383;-81
2022/04/04 05:35:19;;;;;;;21.88;19.67;;;6.80;85.30;;;;;;6041755;23;20383;-80
2022/04/04 05:37:47;;;;;;;20.90;18.80;;;6.80;84.20;;;;;;6040467;23;20383;-81
2022/04/04 05:40:14;;;;;;;22.85;20.65;;;6.80;84.00;;;;;;6017825;23;20373;-81
2022/04/04 05:42:42;;;;;;;23.42;21.02;;;6.80;84.50;;;;;;6043947;23;20391;-81
2022/04/04 05:45:09;;;;;;;25.02;22.52;;;6.80;84.50;;;;;;6041488;23;20387;-81
2022/04/04 05:47:36;;;;;;;24.38;21.77;;;6.80;85.40;;;;;;6041979;23;20383;-81
2022/04/04 05:50:04;;;;;;;24.08;21.67;;;6.70;85.90;;;;;;6041070;23;20379;-80
2022/04/04 05:52:31;;;;;;;23.40;21.10;;;6.70;86.30;;;;;;6043458;23;20391;-82
2022/04/04 05:54:58;;;;;;;25.50;23.00;;;6.60;86.50;;;;;;6040931;23;20375;-80
2022/04/04 05:57:29;;;;;;;25.38;22.73;;;6.60;86.50;;;;;;6042088;23;20443;-80
2022/04/04 05:59:56;;;;;;;25.08;22.65;;;6.50;87.20;;;;;;6069214;23;20379;-81
2022/04/04 06:02:24;;;;;;;25.23;22.50;;;6.40;87.70;;;;;;6041599;23;20386;-81
2022/04/04 06:04:52;;;;;;;26.50;23.77;;;6.40;87.80;;;;;;6043451;23;20454;-81
2022/04/04 06:07:19;;;;;;;25.58;23.08;;;6.50;87.70;;;;;;6040805;23;20462;-81
2022/04/04 06:09:46;;;;;;;24.75;22.30;;;6.40;88.40;;;;;;6042398;23;20379;-81
2022/04/04 06:12:13;;;;;;;26.75;24.05;;;6.40;88.10;;;;;;6040998;23;20856;-81
2022/04/04 06:14:40;;;;;;;27.48;24.67;;;6.40;89.80;;;;;;6040095;23;20447;-82
2022/04/04 06:17:07;;;;;;;28.70;25.73;;;6.40;89.10;;;;;;6065779;23;20515;-81
2022/04/04 06:19:34;;;;;;;27.38;24.50;;;6.30;88.80;;;;;;6041741;23;20383;-81
2022/04/04 06:22:03;;;;;;;29.42;26.40;;;6.20;88.30;;;;;;6041119;23;20426;-81
2022/04/04 06:24:31;;;;;;;30.88;27.58;;;6.10;88.90;;;;;;6040897;23;20442;-82
2022/04/04 06:26:58;;;;;;;32.38;28.85;;;6.10;89.80;;;;;;6065903;23;20387;-80
2022/04/04 06:29:26;;;;;;;30.43;27.30;;;6.10;90.10;;;;;;6043105;23;20997;-82
2022/04/04 06:31:53;;;;;;;30.75;27.58;;;6.10;90.00;;;;;;6038680;23;20910;-82
2022/04/04 06:34:21;;;;;;;28.92;26.00;;;6.20;90.10;;;;;;6041031;23;20474;-81
2022/04/04 06:36:48;;;;;;;31.35;28.08;;;6.20;90.10;;;;;;6041436;23;20446;-81
2022/04/04 06:39:15;;;;;;;31.67;28.33;;;6.20;90.20;;;;;;6066446;23;20379;-80
2022/04/04 06:41:42;;;;;;;33.28;29.67;;;6.20;90.20;;;;;;6043359;23;20938;-80
2022/04/04 06:44:09;;;;;;;32.45;29.10;;;6.10;90.60;;;;;;6040658;23;20379;-80
2022/04/04 06:46:36;;;;;;;33.90;30.30;;;6.10;90.50;;;;;;6068379;23;20383;-81
2022/04/04 06:49:05;;;;;;;37.72;33.80;;;6.10;90.80;;;;;;6039667;23;20381;-80
2022/04/04 06:51:34;;;;;;;72.47;61.50;;;6.10;91.20;;;;;;6040190;23;20391;-81
2022/04/04 06:54:04;;;;;;;79.55;68.10;;;6.10;91.10;;;;;;6041901;23;20390;-81
2022/04/04 06:56:34;;;;;;;37.03;33.00;;;6.10;90.40;;;;;;6041563;23;20419;-81
2022/04/04 06:59:02;;;;;;;33.30;29.90;;;6.20;89.90;;;;;;6039519;23;20883;-80
2022/04/04 07:01:31;;;;;;;31.52;28.23;;;6.10;86.00;;;;;;6041182;23;20379;-81
2022/04/04 07:03:58;;;;;;;43.33;38.13;;;6.10;87.60;;;;;;6038724;23;20387;-82
2022/04/04 07:06:26;;;;;;;28.60;25.77;;;6.00;87.30;;;;;;6041849;23;20390;-81
2022/04/04 07:08:53;;;;;;;25.67;23.05;;;6.00;86.30;;;;;;6040399;23;20438;-81
2022/04/04 07:11:20;;;;;;;26.00;23.38;;;6.00;87.30;;;;;;6042172;23;20418;-80
2022/04/04 07:13:50;;;;;;;26.65;23.95;;;6.00;87.40;;;;;;6067782;23;20402;-81
2022/04/04 07:16:17;;;;;;;26.05;23.45;;;6.10;87.90;;;;;;6041264;23;20383;-80
2022/04/04 07:18:44;;;;;;;24.75;22.15;;;6.20;88.20;;;;;;6043391;23;20391;-81
2022/04/04 07:21:11;;;;;;;24.88;22.38;;;6.20;87.30;;;;;;6042102;23;20383;-81
2022/04/04 07:23:38;;;;;;;24.83;22.27;;;6.30;87.40;;;;;;6064262;23;20860;-80
2022/04/04 07:26:05;;;;;;;25.63;22.92;;;6.20;87.10;;;;;;6067108;23;20762;-80
2022/04/04 07:28:32;;;;;;;25.15;22.55;;;6.30;87.40;;;;;;6041737;23;20876;-80
2022/04/04 07:31:01;;;;;;;30.27;27.20;;;6.30;86.90;;;;;;6041625;23;20490;-80
2022/04/04 07:33:28;;;;;;;24.50;22.00;;;6.40;86.00;;;;;;6042340;23;20391;-81
2022/04/04 07:35:55;;;;;;;24.50;22.00;;;6.40;86.40;;;;;;6064784;23;20387;-80
2022/04/04 07:38:21;;;;;;;22.48;20.17;;;6.40;87.10;;;;;;6042441;23;20756;-80
2022/04/04 07:40:54;;;;;;;25.20;22.63;;;6.40;85.40;;;;;;6044413;23;20390;-81
2022/04/04 07:43:21;;;;;;;36.50;32.80;;;6.50;86.80;;;;;;6041111;23;20497;-81
2022/04/04 07:45:49;;;;;;;25.17;22.55;;;6.40;85.00;;;;;;6038876;23;20411;-80
2022/04/04 07:48:18;;;;;;;27.25;24.45;;;6.40;84.40;;;;;;6040177;23;20443;-80
2022/04/04 07:50:45;;;;;;;23.80;21.38;;;6.30;85.40;;;;;;6039614;23;20868;-80
2022/04/04 07:53:13;;;;;;;26.03;23.23;;;6.30;85.00;;;;;;6038984;23;20871;-79
2022/04/04 07:55:40;;;;;;;23.60;21.20;;;6.40;85.80;;;;;;6039945;23;20390;-80
2022/04/04 07:58:07;;;;;;;23.50;21.10;;;6.40;86.20;;;;;;6039072;23;21189;-79
2022/04/04 08:00:34;;;;;;;20.73;18.70;;;6.60;86.40;;;;;;6040001;23;20395;-81
2022/04/04 08:03:04;;;;;;;21.23;19.23;;;6.70;85.30;;;;;;6038529;23;20406;-81
2022/04/04 08:05:31;;;;;;;21.50;19.33;;;6.80;84.90;;;;;;6064130;23;20426;-80
2022/04/04 08:07:58;;;;;;;22.38;20.02;;;6.80;83.30;;;;;;6039847;23;20378;-79
2022/04/04 08:10:25;;;;;;;20.58;18.50;;;6.90;83.50;;;;;;6040157;23;20894;-79
2022/04/04 08:12:52;;;;;;;18.23;16.42;;;7.00;83.70;;;;;;6039173;23;20431;-81
2022/04/04 08:15:19;;;;;;;18.98;17.17;;;6.90;81.00;;;;;;6039240;23;20375;-79
2022/04/04 08:17:49;;;;;;;19.63;17.73;;;7.00;83.20;;;;;;6039921;23;20379;-80
2022/04/04 08:20:17;;;;;;;18.20;16.48;;;7.10;83.20;;;;;;6039555;23;20412;-81
2022/04/04 08:22:45;;;;;;;18.48;16.67;;;7.10;81.80;;;;;;6039674;23;20447;-80
2022/04/04 08:25:14;;;;;;;18.85;16.95;;;7.20;79.80;;;;;;6038117;23;20408;-81
2022/04/04 08:27:43;;;;;;;19.75;17.85;;;7.00;79.60;;;;;;6040391;23;20379;-80
2022/04/04 08:30:15;;;;;;;19.35;17.48;;;7.10;79.60;;;;;;6038567;23;20414;-81
2022/04/04 08:32:42;;;;;;;22.40;20.10;;;7.10;79.70;;;;;;6029461;23;20757;-80
2022/04/04 08:35:12;;;;;;;22.50;20.10;;;7.20;80.20;;;;;;6038494;23;20863;-80
2022/04/04 08:37:41;;;;;;;22.13;19.77;;;7.00;80.70;;;;;;6064876;23;20461;-80
2022/04/04 08:40:11;;;;;;;21.10;19.00;;;7.00;80.00;;;;;;6038927;23;20414;-80
2022/04/04 08:42:38;;;;;;;22.27;20.02;;;7.10;80.40;;;;;;6039213;23;20911;-79
2022/04/04 08:45:06;;;;;;;22.55;20.25;;;7.20;79.60;;;;;;6039286;23;20383;-81
2022/04/04 08:47:34;;;;;;;22.53;20.13;;;7.10;79.00;;;;;;6064241;23;20946;-80
2022/04/04 08:50:02;;;;;;;23.40;20.95;;;7.10;79.60;;;;;;6049485;23;20386;-79
2022/04/04 08:52:29;;;;;;;25.58;22.95;;;7.20;80.30;;;;;;6038870;23;20478;-80
2022/04/04 08:54:56;;;;;;;24.63;22.02;;;7.30;77.50;;;;;;6038044;23;20447;-80
2022/04/04 08:57:23;;;;;;;30.65;27.30;;;7.40;77.30;;;;;;6062877;23;20383;-80
2022/04/04 08:59:50;;;;;;;25.30;22.63;;;7.50;76.80;;;;;;6039470;23;20918;-80
2022/04/04 09:02:17;;;;;;;23.95;21.45;;;7.40;76.20;;;;;;6038411;23;20379;-81
2022/04/04 09:04:50;;;;;;;22.80;20.05;;;7.60;78.10;;;;;;6039512;23;20379;-80
2022/04/04 09:07:21;;;;;;;19.73;17.65;;;7.60;75.20;;;;;;6039066;23;20383;-80
2022/04/04 09:09:51;;;;;;;20.90;18.80;;;7.60;76.00;;;;;;6039432;23;20394;-79
2022/04/04 09:12:20;;;;;;;21.30;19.20;;;7.70;75.70;;;;;;6038798;23;20430;-80
2022/04/04 09:14:51;;;;;;;18.83;16.95;;;7.90;75.80;;;;;;6039084;23;20789;-80
2022/04/04 09:17:24;;;;;;;19.38;17.38;;;8.00;74.80;;;;;;6038352;23;20406;-80
2022/04/04 09:19:51;;;;;;;20.73;18.52;;;8.30;75.60;;;;;;6039060;23;20379;-79
2022/04/04 09:22:19;;;;;;;20.52;18.13;;;8.20;74.30;;;;;;6038548;23;20439;-80
2022/04/04 09:24:56;;;;;;;19.50;17.58;;;8.40;73.80;;;;;;6039602;23;20383;-80
2022/04/04 09:27:31;;;;;;;21.08;18.85;;;8.50;73.90;;;;;;6037490;23;20369;-80
2022/04/04 09:30:06;;;;;;;19.00;17.00;;;8.50;74.60;;;;;;6039516;23;20436;-80
2022/04/04 09:32:44;;;;;;;17.95;16.05;;;8.30;71.60;;;;;;6038413;23;20383;-79
2022/04/04 09:35:13;;;;;;;19.88;17.77;;;8.30;71.70;;;;;;6038151;23;20859;-79
2022/04/04 09:37:42;;;;;;;17.47;15.77;;;8.50;73.70;;;;;;6039054;23;20386;-79
2022/04/04 09:40:16;;;;;;;16.75;15.02;;;8.40;71.10;;;;;;6038245;23;20867;-81
2022/04/04 09:42:54;;;;;;;16.40;14.73;;;8.30;71.70;;;;;;6063945;23;20386;-79
2022/04/04 09:45:25;;;;;;;16.40;14.80;;;8.60;71.40;;;;;;6037620;23;20419;-80
2022/04/04 09:48:02;;;;;;;15.43;14.02;;;8.90;70.80;;;;;;6039160;23;20383;-79
2022/04/04 09:50:47;;;;;;;16.73;15.07;;;8.80;68.70;;;;;;6037688;23;20387;-80
2022/04/04 09:53:23;;;;;;;17.60;15.85;;;8.80;69.30;;;;;;6038066;23;20383;-81
2022/04/04 09:55:55;;;;;;;17.08;15.38;;;9.10;70.00;;;;;;6038886;23;20415;-81
2022/04/04 09:58:25;;;;;;;14.93;13.45;;;9.40;68.60;;;;;;6038319;23;20410;-80
2022/04/04 10:00:54;;;;;;;14.40;13.02;;;9.70;67.70;;;;;;6038813;23;20498;-80
2022/04/04 10:03:22;;;;;;;14.70;13.23;;;9.70;66.30;;;;;;6038268;23;20720;-79
2022/04/04 10:06:05;;;;;;;14.93;13.43;;;9.60;64.80;;;;;;6064341;23;20439;-80
2022/04/04 10:08:35;;;;;;;15.15;13.75;;;9.50;67.20;;;;;;6040026;23;20387;-80
2022/04/04 10:11:03;;;;;;;15.75;14.18;;;9.60;66.60;;;;;;6040834;23;20380;-80
2022/04/04 10:13:31;;;;;;;15.52;14.05;;;9.70;67.20;;;;;;6039623;23;20398;-80
2022/04/04 10:15:58;;;;;;;14.63;13.23;;;9.90;67.10;;;;;;6040712;23;20446;-80
2022/04/04 10:18:26;;;;;;;14.55;13.15;;;10.20;65.30;;;;;;6039401;23;20886;-79
2022/04/04 10:20:57;;;;;;;13.98;12.60;;;10.30;64.50;;;;;;6041763;23;20391;-80
2022/04/04 10:23:26;;;;;;;14.35;13.05;;;10.30;63.30;;;;;;6040048;23;20438;-79
2022/04/04 10:25:54;;;;;;;14.13;12.77;;;10.30;62.60;;;;;;6040627;23;20411;-80
2022/04/04 10:28:35;;;;;;;14.13;12.77;;;10.40;63.30;;;;;;6040299;23;20395;-81
2022/04/04 10:31:20;;;;;;;14.23;12.87;;;10.50;63.20;;;;;;6040664;23;20387;-80
2022/04/04 10:33:50;;;;;;;15.30;13.80;;;10.50;62.60;;;;;;6064217;23;20894;-80
2022/04/04 10:36:22;;;;;;;13.83;12.60;;;10.80;63.90;;;;;;6040575;23;20387;-80
2022/04/04 10:38:52;;;;;;;14.32;12.85;;;11.10;61.00;;;;;;6039557;23;21017;-80
2022/04/04 10:41:30;;;;;;;14.38;12.98;;;11.20;60.60;;;;;;6041113;23;20383;-81
2022/04/04 10:43:58;;;;;;;13.37;12.10;;;11.30;61.50;;;;;;6063346;23;20381;-80
2022/04/04 10:46:26;;;;;;;14.10;12.75;;;11.10;60.50;;;;;;6040608;23;20446;-80
2022/04/04 10:49:04;;;;;;;14.48;13.05;;;11.20;61.20;;;;;;6039523;23;20466;-80
2022/04/04 10:51:34;;;;;;;14.85;13.25;;;11.50;61.30;;;;;;6040196;23;20382;-80
2022/04/04 10:54:02;;;;;;;13.63;12.32;;;11.40;59.60;;;;;;6039092;23;20378;-79
2022/04/04 10:56:33;;;;;;;13.97;12.57;;;11.20;59.40;;;;;;6040655;23;20387;-79
2022/04/04 10:59:15;;;;;;;14.97;13.20;;;10.60;60.30;;;;;;6038910;23;20379;-81
2022/04/04 11:01:54;;;;;;;16.10;14.63;;;10.30;61.70;;;;;;6039305;23;20450;-81
2022/04/04 11:04:28;;;;;;;16.35;14.65;;;10.40;63.20;;;;;;6039883;23;20986;-81
2022/04/04 11:10:05;;;;;;;14.80;13.40;;;10.60;64.00;;;;;;6064534;23;20390;-80
2022/04/04 11:13:14;;;;;;;13.55;12.25;;;11.10;61.50;;;;;;6039934;23;20868;-81
2022/04/04 11:15:48;;;;;;;14.32;13.02;;;11.80;62.40;;;;;;6039194;23;20391;-80
2022/04/04 11:18:15;;;;;;;13.80;12.52;;;12.30;60.00;;;;;;6039062;23;20866;-80
2022/04/04 11:21:01;;;;;;;14.55;13.13;;;12.40;57.40;;;;;;6038847;23;20371;-80
2022/04/04 11:23:34;;;;;;;14.70;13.30;;;12.10;57.30;;;;;;6038508;23;20392;-81
2022/04/04 11:26:04;;;;;;;17.60;15.35;;;12.10;57.10;;;;;;6039822;23;20895;-81
2022/04/04 11:28:36;;;;;;;21.00;17.98;;;11.90;58.70;;;;;;6063590;23;20446;-79
2022/04/04 11:31:08;;;;;;;17.23;15.45;;;11.40;57.90;;;;;;6040168;23;20418;-81
2022/04/04 11:33:49;;;;;;;16.75;14.98;;;11.70;57.60;;;;;;6025286;23;20418;-81
2022/04/04 11:36:32;;;;;;;17.33;15.63;;;12.00;57.30;;;;;;6040077;23;20777;-79
2022/04/04 11:39:03;;;;;;;14.20;12.90;;;12.30;56.80;;;;;;6038835;23;20372;-81
2022/04/04 11:41:36;;;;;;;14.93;13.48;;;12.70;56.20;;;;;;6040300;23;20470;-81
2022/04/04 11:44:04;;;;;;;14.25;12.95;;;12.50;55.00;;;;;;6038883;23;20379;-80
2022/04/04 11:46:31;;;;;;;13.60;12.30;;;12.60;54.40;;;;;;6039498;23;20379;-81
2022/04/04 11:48:59;;;;;;;34.53;27.05;;;12.60;55.60;;;;;;6039195;23;20387;-81
2022/04/04 11:51:31;;;;;;;13.93;12.52;;;12.50;51.30;;;;;;6039764;23;20383;-80
2022/04/04 11:54:10;;;;;;;15.40;13.95;;;12.10;50.80;;;;;;6039042;23;20390;-79
2022/04/04 11:56:41;;;;;;;14.05;12.75;;;11.60;52.30;;;;;;6038683;23;20383;-81
2022/04/04 11:59:09;;;;;;;13.55;12.25;;;12.00;54.40;;;;;;6038319;23;20375;-80
2022/04/04 12:01:36;;;;;;;13.73;12.52;;;12.30;53.90;;;;;;6038670;23;20757;-80
2022/04/04 12:04:06;;;;;;;12.80;11.70;;;12.80;53.20;;;;;;6037596;23;20519;-81
2022/04/04 12:06:34;;;;;;;13.02;11.90;;;12.80;52.80;;;;;;6039321;23;20387;-81
2022/04/04 12:09:07;;;;;;;13.25;12.05;;;12.80;52.40;;;;;;6038037;23;20879;-78
2022/04/04 12:11:35;;;;;;;13.30;12.00;;;12.70;51.20;;;;;;6063385;23;20382;-78
2022/04/04 12:14:02;;;;;;;13.95;12.55;;;12.80;51.10;;;;;;6037467;23;20387;-81
2022/04/04 12:16:32;;;;;;;12.13;11.07;;;12.80;51.60;;;;;;6039846;23;20394;-81
2022/04/04 12:19:00;;;;;;;12.88;11.68;;;12.70;51.10;;;;;;6038570;23;20856;-81
2022/04/04 12:21:28;;;;;;;13.93;12.63;;;12.50;50.50;;;;;;6038692;23;20371;-80
2022/04/04 12:26:43;;;;;;;14.45;13.05;;;12.10;53.40;;;;;;6062640;23;20923;-81
2022/04/04 12:29:12;;;;;;;14.68;13.18;;;12.40;53.80;;;;;;6037076;23;20932;-81
2022/04/04 12:31:55;;;;;;;14.60;13.20;;;12.60;52.90;;;;;;6038537;23;20390;-81
2022/04/04 12:34:23;;;;;;;14.82;13.32;;;12.90;51.80;;;;;;6061294;23;20402;-79
2022/04/04 12:36:58;;;;;;;13.27;12.07;;;13.00;52.20;;;;;;6038736;23;20387;-81
2022/04/04 12:39:25;;;;;;;13.80;12.50;;;13.10;52.10;;;;;;6038439;23;20466;-81
2022/04/04 12:41:53;;;;;;;12.47;11.33;;;12.90;49.60;;;;;;6038538;23;20944;-80
2022/04/04 12:44:23;;;;;;;12.43;11.23;;;13.00;49.80;;;;;;6038169;23;20481;-81
2022/04/04 12:46:50;;;;;;;12.35;11.00;;;13.00;49.50;;;;;;6039381;23;20455;-81
2022/04/04 12:49:22;;;;;;;12.63;11.45;;;12.80;49.50;;;;;;6036852;23;20721;-78
2022/04/04 12:51:58;;;;;;;14.10;12.80;;;12.50;49.40;;;;;;6038656;23;20458;-81